createdAt,value
2023-01-19T00:14:05.604Z,0.6
2023-01-19T00:29:05.724Z,0.7
2023-01-19T00:44:05.623Z,0.5
2023-01-19T00:59:05.691Z,0.6
2023-01-19T01:14:05.598Z,0.4
2023-01-19T01:29:05.639Z,0.4
2023-01-19T01:44:05.696Z,0.4
2023-01-19T01:59:05.711Z,0.2
2023-01-19T02:14:05.696Z,0.3
2023-01-19T02:29:05.682Z,0.3
2023-01-19T02:44:05.622Z,0.6
2023-01-19T02:59:05.701Z,0.5
2023-01-19T03:14:05.730Z,0.6
2023-01-19T03:29:05.700Z,0.8
2023-01-19T03:44:05.716Z,0.7
2023-01-19T03:59:05.731Z,0.8
2023-01-19T04:14:05.623Z,0.8
2023-01-19T04:29:05.733Z,0.8
2023-01-19T04:44:05.859Z,0.8
2023-01-19T04:59:05.616Z,0.8
2023-01-19T05:14:05.626Z,0.6
2023-01-19T05:29:05.732Z,0.3
2023-01-19T05:44:05.697Z,0.2
2023-01-19T05:59:05.727Z,0.2
2023-01-19T06:14:05.714Z,0.3
2023-01-19T06:29:05.725Z,0.2
2023-01-19T06:44:05.608Z,0
2023-01-19T06:59:05.721Z,-0.1
2023-01-19T07:14:05.714Z,-0.1
2023-01-19T07:29:05.728Z,-0.1
2023-01-19T07:44:05.624Z,-0.1
2023-01-19T07:59:05.663Z,0.1
2023-01-19T08:14:07.825Z,0.2
2023-01-19T08:29:05.714Z,0.4
2023-01-19T08:44:05.623Z,0.5
2023-01-19T08:59:09.469Z,0.6
2023-01-19T09:14:05.650Z,0.6
2023-01-19T09:29:05.720Z,0.8
2023-01-19T09:44:05.593Z,0.8
2023-01-19T09:59:05.752Z,0.9
2023-01-19T10:14:05.634Z,1.1
2023-01-19T10:29:05.710Z,1.3
2023-01-19T10:44:05.686Z,1.5
2023-01-19T10:59:05.684Z,1.5
2023-01-19T11:14:05.638Z,1.4
2023-01-19T11:29:05.714Z,1.6
2023-01-19T11:44:05.604Z,1.6
2023-01-19T11:59:05.724Z,1.5
2023-01-19T12:14:05.595Z,1.4
2023-01-19T12:29:05.618Z,1.5
2023-01-19T12:44:05.679Z,1.5
2023-01-19T12:59:05.624Z,1.6
2023-01-19T13:14:05.629Z,1.8
2023-01-19T13:29:05.709Z,1.8
2023-01-19T13:44:05.647Z,1.8
2023-01-19T13:59:05.700Z,1.7
2023-01-19T14:14:05.720Z,1.6
2023-01-19T14:29:05.696Z,1.7
2023-01-19T14:44:05.694Z,2
2023-01-19T14:59:05.711Z,2
2023-01-19T15:14:05.628Z,1.9
2023-01-19T15:29:05.688Z,1.6
2023-01-19T15:44:05.702Z,1.6
2023-01-19T15:59:05.721Z,1.6
2023-01-19T16:14:05.612Z,1.4
2023-01-19T16:29:05.679Z,0.9
2023-01-19T16:44:05.621Z,1.1
2023-01-19T16:59:05.600Z,1
2023-01-19T17:14:05.646Z,0.8
2023-01-19T17:29:05.728Z,0.6
2023-01-19T17:44:05.728Z,0.6
2023-01-19T17:59:05.729Z,0.7
2023-01-19T18:14:05.591Z,0.7
2023-01-19T18:29:05.694Z,0.8
2023-01-19T18:44:05.718Z,0.9
2023-01-19T18:59:05.713Z,0.8
2023-01-19T19:14:05.620Z,0.7
2023-01-19T19:29:05.628Z,0.8
2023-01-19T19:44:05.707Z,0.5
2023-01-19T19:59:05.698Z,0.3
2023-01-19T20:14:05.608Z,0.5
2023-01-19T20:29:05.745Z,0.4
2023-01-19T20:44:05.651Z,0.3
2023-01-19T20:59:05.725Z,0.3
2023-01-19T21:14:05.622Z,0.5
2023-01-19T21:29:05.730Z,0.6
2023-01-19T21:44:05.652Z,0.7
2023-01-19T21:59:05.720Z,0.5
2023-01-19T22:14:05.602Z,0.2
2023-01-19T22:29:05.737Z,0.1
2023-01-19T22:44:05.670Z,0.1
2023-01-19T22:59:05.653Z,0
2023-01-19T23:14:05.637Z,-0.1
2023-01-19T23:29:05.728Z,-0.1
2023-01-19T23:44:05.716Z,-0.2
2023-01-19T23:59:05.731Z,-0.1
